Time;durP1;ratioP1;P1;durP2;ratioP2;P2;SDS_P1;SDS_P2;PMS_P1;PMS_P2;Temp;Humidity;BMP_temperature;BMP_pressure;BME280_temperature;BME280_humidity;BME280_pressure;Samples;Min_cycle;Max_cycle;Signal;HPM_P1;HPM_P2
2021/05/26 00:00:03;;;;;;;18.30;10.25;;;;;;;15.73;79.15;101037.15;1679359;85;21235;-59
2021/05/26 00:03:08;;;;;;;22.02;10.58;;;;;;;15.68;78.80;101034.94;1679509;85;21195;-59
2021/05/26 00:06:14;;;;;;;17.48;9.78;;;;;;;15.61;78.77;101034.53;1686794;85;21234;-59
2021/05/26 00:09:19;;;;;;;19.77;8.90;;;;;;;15.61;79.02;101035.39;1680531;85;21231;-59
2021/05/26 00:12:26;;;;;;;13.03;8.23;;;;;;;15.58;79.07;101026.13;1676621;85;21284;-60
2021/05/26 00:15:33;;;;;;;15.53;8.70;;;;;;;15.55;79.19;101026.52;1641034;87;21245;-60
2021/05/26 00:18:42;;;;;;;15.60;8.85;;;;;;;15.53;79.26;101029.98;1676651;85;21219;-59
2021/05/26 00:21:48;;;;;;;14.55;8.78;;;;;;;15.49;79.24;101030.56;1680483;85;21228;-59
2021/05/26 00:24:54;;;;;;;13.75;8.80;;;;;;;15.43;79.35;101027.20;1676377;85;21275;-60
2021/05/26 00:28:00;;;;;;;14.58;8.75;;;;;;;15.36;79.49;101022.92;1622155;88;21354;-59
2021/05/26 00:31:09;;;;;;;16.80;7.80;;;;;;;15.31;79.61;101024.02;1643349;87;21248;-59
2021/05/26 00:34:17;;;;;;;12.65;7.80;;;;;;;15.27;79.83;101016.31;1679982;85;21313;-60
2021/05/26 00:37:23;;;;;;;16.27;7.85;;;;;;;15.26;80.23;101013.20;1676703;85;21196;-60
2021/05/26 00:40:28;;;;;;;14.18;8.03;;;;;;;15.28;80.43;101009.74;1680182;85;21326;-59
2021/05/26 00:43:33;;;;;;;13.13;8.33;;;;;;;15.25;80.51;101002.72;1676620;85;21212;-59
2021/05/26 00:46:47;;;;;;;12.13;7.90;;;;;;;15.22;80.55;101000.34;1640134;87;21248;-59
2021/05/26 00:49:56;;;;;;;17.05;8.85;;;;;;;15.20;80.62;101002.94;1676707;85;21272;-59
2021/05/26 00:53:03;;;;;;;17.30;8.45;;;;;;;15.20;80.89;101005.19;1679967;85;21223;-60
2021/05/26 00:56:08;;;;;;;17.90;8.18;;;;;;;15.23;81.01;101003.94;1676530;85;21550;-59
2021/05/26 00:59:15;;;;;;;19.27;8.48;;;;;;;15.24;80.94;101000.98;1640588;87;21241;-59
2021/05/26 01:02:22;;;;;;;18.95;8.40;;;;;;;15.25;80.59;100997.71;1683234;85;21286;-60
2021/05/26 01:05:30;;;;;;;21.05;8.38;;;;;;;15.19;80.27;100981.94;1683357;85;21250;-60
2021/05/26 01:08:36;;;;;;;18.52;7.87;;;;;;;15.10;80.33;100989.44;1676369;85;21208;-61
2021/05/26 01:11:44;;;;;;;19.50;8.00;;;;;;;15.08;80.51;100985.17;1649264;86;21237;-60
2021/05/26 01:14:51;;;;;;;14.05;7.90;;;;;;;15.07;80.41;100987.58;1648641;86;21281;-60
2021/05/26 01:17:57;;;;;;;13.60;7.67;;;;;;;15.06;80.36;100992.26;1649147;87;21276;-59
2021/05/26 01:21:05;;;;;;;15.40;8.38;;;;;;;15.03;80.48;100985.75;1649165;87;21923;-59
2021/05/26 01:24:15;;;;;;;16.75;8.15;;;;;;;14.96;80.45;100984.27;1649286;87;21269;-59
2021/05/26 01:27:22;;;;;;;15.70;8.23;;;;;;;14.87;80.65;100987.30;1649154;86;21407;-59
2021/05/26 01:30:27;;;;;;;11.70;7.65;;;;;;;14.81;80.90;100991.66;1649148;87;22021;-59
2021/05/26 01:33:32;;;;;;;8.73;6.78;;;;;;;14.77;80.88;101000.49;1649130;87;21981;-60
2021/05/26 01:36:42;;;;;;;10.13;6.83;;;;;;;14.76;80.73;100996.03;1649578;86;21869;-60
2021/05/26 01:39:49;;;;;;;8.68;6.25;;;;;;;14.73;80.54;101000.55;1649126;87;21332;-60
2021/05/26 01:42:53;;;;;;;8.90;6.30;;;;;;;14.68;80.37;101006.59;1649469;86;21585;-62
2021/05/26 01:46:00;;;;;;;9.93;5.92;;;;;;;14.63;80.21;101009.59;1649101;87;21375;-62
2021/05/26 01:49:08;;;;;;;8.00;6.08;;;;;;;14.60;80.20;101011.34;1649211;86;21237;-60
2021/05/26 01:52:13;;;;;;;12.00;7.08;;;;;;;14.53;80.08;101006.23;1649145;87;21259;-62
2021/05/26 01:55:21;;;;;;;11.15;7.35;;;;;;;14.48;80.19;101007.30;1649248;86;21349;-60
2021/05/26 01:58:28;;;;;;;11.05;7.03;;;;;;;14.46;80.48;101010.25;1649086;86;21244;-62
2021/05/26 02:01:36;;;;;;;10.10;7.87;;;;;;;14.45;80.63;101012.68;1649168;86;21707;-62
2021/05/26 02:04:43;;;;;;;11.57;8.23;;;;;;;14.44;80.64;101017.00;1649279;86;21268;-62
2021/05/26 02:07:49;;;;;;;12.65;8.00;;;;;;;14.44;80.74;101025.27;1649173;87;21438;-62
2021/05/26 02:14:22;;;;;;;15.20;8.75;;;;;;;14.42;81.10;101024.08;1680274;85;21290;-60
2021/05/26 02:17:28;;;;;;;15.20;8.88;;;;;;;14.46;81.35;101020.44;1680194;85;21366;-61
2021/05/26 02:20:33;;;;;;;12.25;7.78;;;;;;;14.49;81.45;101031.08;1680272;85;22053;-61
2021/05/26 02:23:38;;;;;;;15.00;8.43;;;;;;;14.53;81.65;101033.78;1680176;85;21227;-61
2021/05/26 02:26:44;;;;;;;15.78;8.43;;;;;;;14.58;81.51;101039.09;1680217;85;21358;-60
2021/05/26 02:29:50;;;;;;;16.70;11.18;;;;;;;14.60;81.41;101038.91;1680122;85;21381;-61
2021/05/26 02:32:55;;;;;;;17.27;11.83;;;;;;;14.63;81.39;101044.91;1679788;85;21215;-61
2021/05/26 02:36:02;;;;;;;28.20;17.87;;;;;;;14.68;81.13;101043.80;1680159;85;21836;-61
2021/05/26 02:39:08;;;;;;;26.15;16.93;;;;;;;14.72;80.90;101044.30;1680294;85;21230;-61
2021/05/26 02:42:13;;;;;;;21.37;16.15;;;;;;;14.76;80.74;101042.89;1680324;85;21219;-61
2021/05/26 02:45:20;;;;;;;19.92;12.33;;;;;;;14.76;80.66;101044.27;1680160;85;21296;-61
2021/05/26 02:48:27;;;;;;;16.40;9.73;;;;;;;14.77;80.73;101043.22;1680173;85;21211;-61
2021/05/26 02:51:31;;;;;;;12.03;9.25;;;;;;;14.85;81.13;101058.30;1679892;85;21391;-61
2021/05/26 02:54:36;;;;;;;13.18;9.73;;;;;;;14.87;81.29;101051.55;1680317;85;21250;-61
2021/05/26 02:57:42;;;;;;;16.02;9.75;;;;;;;14.95;81.43;101060.28;1680292;85;21219;-62
2021/05/26 03:00:54;;;;;;;12.40;9.88;;;;;;;15.06;81.40;101057.58;1672688;85;21239;-60
2021/05/26 03:04:07;;;;;;;14.25;10.35;;;;;;;15.12;81.49;101055.44;1680423;85;21215;-61
2021/05/26 03:07:14;;;;;;;17.92;9.70;;;;;;;15.23;81.51;101055.83;1680221;85;21421;-61
2021/05/26 03:10:23;;;;;;;15.90;10.23;;;;;;;15.35;81.47;101052.09;1680181;85;21220;-61
2021/05/26 03:13:31;;;;;;;15.72;9.23;;;;;;;15.44;81.41;101055.98;1692876;82;21250;-61
2021/05/26 03:16:38;;;;;;;19.67;9.75;;;;;;;15.55;81.37;101056.00;1695157;84;21270;-61
2021/05/26 03:19:44;;;;;;;17.85;9.35;;;;;;;15.66;81.23;101054.14;1694880;84;21243;-62
2021/05/26 03:23:00;;;;;;;13.13;9.15;;;;;;;15.77;81.09;101061.41;1695059;84;21296;-62
2021/05/26 03:26:26;;;;;;;16.00;9.98;;;;;;;15.91;80.80;101064.66;1678306;85;21279;-61
2021/05/26 03:29:30;;;;;;;17.10;9.23;;;;;;;16.06;80.46;101064.09;1678659;85;21255;-61
2021/05/26 03:32:35;;;;;;;15.48;9.90;;;;;;;16.19;80.11;101065.62;1693081;84;21219;-61
2021/05/26 03:35:41;;;;;;;16.10;9.70;;;;;;;16.31;79.71;101067.36;1693680;83;21311;-61
2021/05/26 03:38:40;;;;;;;17.73;9.18;;;;;;;16.43;79.42;101069.91;1688995;83;21275;-60
2021/05/26 03:41:46;;;;;;;14.95;9.18;;;;;;;16.53;79.01;101071.88;1688707;85;21240;-59
2021/05/26 03:44:55;;;;;;;16.60;10.05;;;;;;;16.64;78.81;101069.95;1688746;85;21623;-60
2021/05/26 03:48:01;;;;;;;26.15;10.55;;;;;;;16.75;78.52;101073.56;1688903;85;21209;-60
2021/05/26 03:51:09;;;;;;;17.60;10.08;;;;;;;16.85;78.25;101067.70;1688723;85;21279;-61
2021/05/26 03:54:16;;;;;;;14.38;10.32;;;;;;;16.96;77.76;101077.70;1688953;85;21248;-60
2021/05/26 03:57:22;;;;;;;21.10;10.50;;;;;;;17.08;77.39;101079.36;1688702;85;21232;-61
2021/05/26 04:00:28;;;;;;;17.35;10.85;;;;;;;17.18;77.04;101084.89;1689051;85;21276;-61
2021/05/26 04:03:35;;;;;;;16.07;11.10;;;;;;;17.29;76.85;101078.80;1688783;85;21220;-61
2021/05/26 04:06:42;;;;;;;18.67;11.70;;;;;;;17.40;76.50;101082.91;1689045;85;21243;-61
2021/05/26 04:09:48;;;;;;;19.77;12.45;;;;;;;17.53;76.21;101081.65;1688758;84;21236;-60
2021/05/26 04:12:55;;;;;;;20.45;12.88;;;;;;;17.63;75.96;101082.97;1665605;84;21380;-60
2021/05/26 04:16:05;;;;;;;20.75;12.00;;;;;;;17.76;75.65;101080.28;1649857;87;21397;-60
2021/05/26 04:19:13;;;;;;;20.88;12.25;;;;;;;17.89;75.24;101087.80;1645988;86;21200;-60
2021/05/26 04:22:21;;;;;;;22.90;12.80;;;;;;;18.00;74.97;101081.67;1615430;89;21363;-60
2021/05/26 04:25:30;;;;;;;21.80;12.25;;;;;;;18.14;75.01;101087.58;1649734;87;21283;-60
2021/05/26 04:28:43;;;;;;;20.75;12.23;;;;;;;18.25;74.74;101085.59;1650863;86;21378;-60
2021/05/26 04:31:43;;;;;;;21.12;12.60;;;;;;;18.36;74.19;101091.91;1646303;86;21259;-60
2021/05/26 04:34:50;;;;;;;19.30;11.97;;;;;;;18.45;74.02;101083.78;1601861;89;21264;-60
2021/05/26 04:37:57;;;;;;;25.00;13.05;;;;;;;18.56;73.85;101084.55;1602071;89;21534;-60
2021/05/26 04:41:05;;;;;;;22.30;12.30;;;;;;;18.67;73.69;101083.92;1626491;86;21236;-62
2021/05/26 04:44:11;;;;;;;22.20;11.95;;;;;;;18.78;73.25;101087.46;1672726;84;21249;-61
2021/05/26 04:47:16;;;;;;;22.15;12.25;;;;;;;18.88;73.14;101081.48;1642327;86;21624;-60
2021/05/26 04:50:24;;;;;;;21.23;13.22;;;;;;;18.99;72.57;101086.41;1599708;89;21256;-61
2021/05/26 04:53:32;;;;;;;21.68;12.98;;;;;;;19.10;72.34;101082.46;1629176;86;21260;-60
2021/05/26 04:56:36;;;;;;;27.77;12.10;;;;;;;19.20;71.94;101081.47;1664575;85;21212;-60
2021/05/26 04:59:43;;;;;;;22.25;13.05;;;;;;;19.30;71.49;101086.62;1668208;85;21788;-60
2021/05/26 05:02:48;;;;;;;21.15;12.78;;;;;;;19.42;71.40;101084.05;1652233;86;21331;-56
2021/05/26 05:05:53;;;;;;;24.57;13.00;;;;;;;19.53;71.42;101082.00;1649299;86;21204;-56
2021/05/26 05:08:59;;;;;;;21.27;12.93;;;;;;;19.63;71.16;101083.24;1653755;86;21295;-57
2021/05/26 05:12:05;;;;;;;18.10;12.15;;;;;;;19.71;70.68;101080.23;1644355;86;21248;-56
2021/05/26 05:15:14;;;;;;;21.75;11.93;;;;;;;19.79;70.56;101086.95;1640745;84;21762;-55
2021/05/26 05:18:20;;;;;;;18.23;11.53;;;;;;;19.90;70.62;101081.27;1623461;87;21150;-55
2021/05/26 05:21:28;;;;;;;18.27;10.65;;;;;;;20.00;70.18;101074.68;1609961;88;21616;-54
2021/05/26 05:24:36;;;;;;;20.80;10.88;;;;;;;20.10;69.81;101072.30;1619700;88;21280;-52
2021/05/26 05:27:41;;;;;;;16.37;11.28;;;;;;;20.21;69.87;101074.41;1604491;88;21418;-53
2021/05/26 05:30:50;;;;;;;15.65;10.05;;;;;;;20.32;69.72;101080.14;1610485;88;21575;-51
2021/05/26 05:33:57;;;;;;;17.52;10.72;;;;;;;20.41;69.21;101077.92;1624753;87;21259;-53
2021/05/26 05:37:08;;;;;;;16.75;9.03;;;;;;;20.49;68.99;101067.93;1609606;88;21272;-51
2021/05/26 05:40:14;;;;;;;15.32;9.78;;;;;;;20.58;68.59;101067.44;1656251;85;21213;-53
2021/05/26 05:43:20;;;;;;;12.90;8.05;;;;;;;20.68;68.61;101064.16;1677299;85;21208;-54
2021/05/26 05:46:26;;;;;;;13.55;8.65;;;;;;;20.76;68.02;101061.11;1677738;85;21227;-54
2021/05/26 05:49:33;;;;;;;14.28;8.63;;;;;;;20.85;67.51;101061.70;1677319;85;21271;-51
2021/05/26 05:52:39;;;;;;;10.88;7.70;;;;;;;20.93;67.09;101065.03;1677645;85;21232;-51
2021/05/26 05:55:45;;;;;;;9.93;8.25;;;;;;;21.02;66.74;101066.51;1677643;85;21248;-53
2021/05/26 05:58:52;;;;;;;12.65;7.70;;;;;;;21.08;66.01;101068.38;1677763;85;21284;-53
2021/05/26 06:01:58;;;;;;;12.60;7.08;;;;;;;21.14;65.94;101076.34;1662422;85;21248;-52
2021/05/26 06:05:05;;;;;;;14.43;7.53;;;;;;;21.22;65.23;101078.31;1649593;85;21880;-52
2021/05/26 06:08:10;;;;;;;13.28;7.22;;;;;;;21.29;64.74;101076.33;1648098;87;21832;-54
2021/05/26 06:11:15;;;;;;;11.68;5.90;;;;;;;21.37;64.68;101071.87;1637998;87;21304;-52
2021/05/26 06:14:20;;;;;;;8.70;6.62;;;;;;;21.44;63.67;101072.63;1649163;85;21387;-53
2021/05/26 06:17:26;;;;;;;13.50;7.40;;;;;;;21.50;62.80;101077.28;1646625;86;21276;-53
2021/05/26 06:20:32;;;;;;;11.43;7.08;;;;;;;21.56;63.20;101076.39;1646493;86;21279;-53
2021/05/26 06:23:37;;;;;;;9.90;7.15;;;;;;;21.63;62.95;101081.33;1639892;85;21758;-54
2021/05/26 06:26:43;;;;;;;8.88;6.05;;;;;;;21.68;61.99;101073.66;1625970;86;21224;-53
2021/05/26 06:29:50;;;;;;;10.98;6.72;;;;;;;21.72;62.07;101073.53;1584312;89;21258;-52
2021/05/26 06:32:55;;;;;;;11.73;5.95;;;;;;;21.81;62.74;101067.98;1589789;89;21854;-52
2021/05/26 06:36:00;;;;;;;9.13;5.25;;;;;;;21.90;62.18;101074.41;1631765;87;21280;-51
2021/05/26 06:39:13;;;;;;;9.85;5.35;;;;;;;21.98;61.21;101081.06;1650472;87;21406;-54
2021/05/26 06:42:25;;;;;;;11.75;6.50;;;;;;;22.02;60.06;101079.49;1636953;87;21203;-52
2021/05/26 06:45:32;;;;;;;7.85;5.58;;;;;;;22.08;60.83;101074.41;1588489;90;21264;-53
2021/05/26 06:48:37;;;;;;;7.22;5.95;;;;;;;22.15;59.69;101075.16;1578682;90;21298;-53
2021/05/26 06:51:42;;;;;;;7.40;3.98;;;;;;;22.20;59.59;101069.73;1635920;87;21855;-54
2021/05/26 06:54:49;;;;;;;5.37;3.30;;;;;;;22.29;58.78;101071.66;1579274;90;21265;-53
2021/05/26 06:57:57;;;;;;;6.08;3.62;;;;;;;22.39;58.29;101068.31;1575773;90;21799;-54
2021/05/26 07:01:03;;;;;;;5.00;4.05;;;;;;;22.48;56.83;101066.88;1611762;88;22026;-52
2021/05/26 07:04:12;;;;;;;5.22;3.98;;;;;;;22.55;55.91;101067.68;1612467;88;21229;-53
2021/05/26 07:07:19;;;;;;;8.15;3.77;;;;;;;22.60;55.98;101058.88;1614535;89;21229;-53
2021/05/26 07:10:26;;;;;;;6.47;4.10;;;;;;;22.70;55.16;101070.87;1600234;89;21244;-52
2021/05/26 07:13:33;;;;;;;5.10;3.80;;;;;;;22.74;54.55;101072.11;1645904;86;21214;-52
2021/05/26 07:16:40;;;;;;;9.85;3.47;;;;;;;22.74;54.03;101075.73;1655791;84;21247;-51
2021/05/26 07:19:48;;;;;;;4.85;3.90;;;;;;;22.83;54.29;101074.86;1671770;85;21781;-51
2021/05/26 07:22:53;;;;;;;4.37;3.47;;;;;;;23.03;53.97;101080.96;1676311;85;21257;-54
2021/05/26 07:25:58;;;;;;;6.55;3.47;;;;;;;23.20;53.51;101081.95;1675478;85;21232;-51
2021/05/26 07:29:05;;;;;;;3.90;3.47;;;;;;;23.31;52.63;101080.61;1675581;85;21479;-52
2021/05/26 07:32:12;;;;;;;4.37;2.95;;;;;;;23.33;52.32;101080.36;1676236;85;21829;-51
2021/05/26 07:35:18;;;;;;;7.40;3.90;;;;;;;23.32;51.83;101075.34;1673314;85;21994;-52
2021/05/26 07:38:24;;;;;;;8.18;3.87;;;;;;;23.31;52.17;101083.41;1674346;85;21308;-52
2021/05/26 07:41:31;;;;;;;6.65;3.90;;;;;;;23.33;51.85;101085.95;1677798;85;21268;-51
2021/05/26 07:44:37;;;;;;;8.03;3.65;;;;;;;23.32;52.19;101083.73;1676130;85;21236;-52
2021/05/26 07:47:42;;;;;;;4.92;3.52;;;;;;;23.33;52.18;101090.14;1675767;85;21363;-52
2021/05/26 07:50:49;;;;;;;6.17;3.47;;;;;;;23.30;51.77;101079.45;1675305;85;21288;-51
2021/05/26 07:53:57;;;;;;;4.92;3.55;;;;;;;23.25;52.18;101080.19;1676716;85;21367;-51
2021/05/26 07:57:04;;;;;;;6.22;3.27;;;;;;;23.29;52.46;101079.16;1677307;85;21233;-51
2021/05/26 08:00:15;;;;;;;8.48;4.00;;;;;;;23.38;52.17;101074.91;1676950;85;21371;-51
2021/05/26 08:03:19;;;;;;;6.62;3.75;;;;;;;23.53;52.41;101071.09;1676817;85;21476;-52
2021/05/26 08:06:24;;;;;;;4.62;3.92;;;;;;;23.63;51.51;101067.11;1677060;85;21363;-50
2021/05/26 08:09:29;;;;;;;6.53;4.00;;;;;;;23.68;51.28;101071.97;1676610;85;21204;-51
2021/05/26 08:12:35;;;;;;;5.62;3.90;;;;;;;23.64;51.64;101078.05;1676861;85;21682;-53
2021/05/26 08:15:41;;;;;;;4.55;3.47;;;;;;;23.59;51.27;101075.70;1677309;84;21232;-52
2021/05/26 08:18:47;;;;;;;7.75;4.45;;;;;;;23.54;51.39;101075.04;1682260;83;21402;-51
2021/05/26 08:21:56;;;;;;;10.70;4.37;;;;;;;23.61;51.76;101076.28;1682122;85;22021;-52
2021/05/26 08:25:03;;;;;;;5.15;4.28;;;;;;;23.81;52.17;101075.91;1684515;85;21307;-50
2021/05/26 08:28:09;;;;;;;8.10;3.70;;;;;;;23.99;52.84;101078.03;1684653;85;21386;-52
2021/05/26 08:31:15;;;;;;;7.20;4.10;;;;;;;24.15;50.29;101070.84;1655062;86;21406;-52
2021/05/26 08:34:21;;;;;;;7.08;3.83;;;;;;;24.23;49.50;101064.27;1655480;86;21260;-52
2021/05/26 08:37:28;;;;;;;4.53;3.40;;;;;;;24.33;50.35;101063.09;1653810;87;21240;-52
2021/05/26 08:40:34;;;;;;;4.97;3.75;;;;;;;24.40;48.69;101062.95;1653662;86;21459;-51
2021/05/26 08:43:45;;;;;;;10.25;3.55;;;;;;;24.46;49.06;101057.20;1678543;85;21414;-52
2021/05/26 08:46:50;;;;;;;6.35;3.47;;;;;;;24.57;49.29;101053.50;1671709;84;21804;-52
2021/05/26 08:49:57;;;;;;;5.25;3.35;;;;;;;24.67;48.85;101052.30;1659426;85;21810;-52
2021/05/26 08:53:01;;;;;;;4.78;3.10;;;;;;;24.77;48.61;101048.30;1667271;85;21216;-54
2021/05/26 08:56:07;;;;;;;5.28;2.87;;;;;;;24.89;47.83;101051.86;1668935;85;21844;-53
2021/05/26 08:59:13;;;;;;;9.93;3.05;;;;;;;25.07;48.29;101040.14;1684723;85;21228;-52
2021/05/26 09:02:22;;;;;;;6.28;3.30;;;;;;;25.28;48.40;101045.80;1667428;85;21760;-52
2021/05/26 09:05:33;;;;;;;5.47;3.25;;;;;;;25.44;47.35;101037.97;1682436;85;21256;-53
2021/05/26 09:08:38;;;;;;;5.65;3.30;;;;;;;25.48;46.68;101029.32;1681935;85;21651;-52
2021/05/26 09:11:43;;;;;;;7.72;3.77;;;;;;;25.59;46.26;101041.55;1687045;85;21236;-52
2021/05/26 09:14:49;;;;;;;4.97;3.12;;;;;;;25.66;46.46;101036.05;1653015;86;21268;-52
2021/05/26 09:18:01;;;;;;;4.03;3.02;;;;;;;25.74;45.47;101037.55;1656080;86;21275;-54
2021/05/26 09:21:06;;;;;;;5.58;3.55;;;;;;;25.72;45.35;101031.38;1654316;86;21315;-52
2021/05/26 09:24:32;;;;;;;5.62;3.15;;;;;;;25.85;45.97;101030.97;1649825;86;21275;-52
2021/05/26 09:27:40;;;;;;;5.65;3.10;;;;;;;26.07;45.61;101034.66;1649887;86;21197;-53
2021/05/26 09:30:45;;;;;;;6.67;2.83;;;;;;;26.32;44.68;101033.01;1661569;85;21739;-53
2021/05/26 09:33:55;;;;;;;3.35;2.75;;;;;;;26.43;44.75;101026.39;1661126;85;21212;-53
2021/05/26 09:37:00;;;;;;;4.62;2.58;;;;;;;26.53;44.31;101031.27;1677176;85;21786;-53
2021/05/26 09:40:13;;;;;;;7.03;3.02;;;;;;;26.65;43.68;101029.20;1653532;85;21773;-53
2021/05/26 09:43:19;;;;;;;5.83;3.75;;;;;;;26.81;43.79;101028.23;1649845;87;21261;-53
2021/05/26 09:46:36;;;;;;;6.35;2.85;;;;;;;26.91;43.44;101028.31;1635198;87;21240;-51
2021/05/26 09:49:42;;;;;;;5.60;2.40;;;;;;;26.96;43.29;101026.95;1648857;87;21308;-51
2021/05/26 09:53:11;;;;;;;3.72;2.52;;;;;;;27.05;43.29;101015.50;1648876;87;21437;-53
2021/05/26 09:56:17;;;;;;;5.75;2.75;;;;;;;27.16;42.06;101019.27;1648941;87;21832;-53
2021/05/26 09:59:21;;;;;;;5.33;2.83;;;;;;;27.23;40.95;101013.69;1632701;87;21390;-52
2021/05/26 10:02:27;;;;;;;6.37;2.75;;;;;;;27.31;41.78;101019.39;1648791;87;21392;-54
2021/05/26 10:05:34;;;;;;;4.20;2.60;;;;;;;27.42;41.68;101017.80;1647015;85;21543;-52
2021/05/26 10:08:59;;;;;;;4.95;2.77;;;;;;;27.42;41.13;101009.36;1648741;85;21264;-50
2021/05/26 10:12:11;;;;;;;3.35;2.27;;;;;;;27.36;41.95;101010.45;1648945;87;21811;-51
2021/05/26 10:15:20;;;;;;;6.42;5.28;;;;;;;27.32;40.73;101011.27;1634882;87;21251;-54
2021/05/26 10:18:26;;;;;;;4.87;2.52;;;;;;;27.42;40.49;101010.77;1648328;86;21193;-52
2021/05/26 10:21:34;;;;;;;6.90;2.67;;;;;;;27.42;39.55;101012.17;1657728;84;21613;-53
2021/05/26 10:24:39;;;;;;;9.08;3.40;;;;;;;27.42;40.55;101006.55;1659629;86;21254;-52
2021/05/26 10:27:47;;;;;;;5.80;2.62;;;;;;;27.39;40.14;101012.72;1680927;83;21808;-53
2021/05/26 10:30:56;;;;;;;7.05;3.10;;;;;;;27.34;40.49;101014.62;1683591;85;21248;-52
2021/05/26 10:34:02;;;;;;;9.23;3.20;;;;;;;27.30;40.49;101003.09;1683120;84;21429;-51
2021/05/26 10:37:10;;;;;;;3.83;2.20;;;;;;;27.48;41.50;100995.61;1687577;85;21220;-52
2021/05/26 10:40:37;;;;;;;21.35;3.75;;;;;;;27.76;40.41;101006.48;1685557;84;21243;-52
2021/05/26 10:43:43;;;;;;;5.53;2.62;;;;;;;27.89;40.12;101005.16;1685058;83;21224;-53
2021/05/26 10:46:50;;;;;;;8.25;2.35;;;;;;;27.88;39.25;101007.67;1628625;88;21213;-51
2021/05/26 10:49:57;;;;;;;23.75;3.42;;;;;;;28.15;39.69;101000.45;1632868;87;21898;-52
2021/05/26 10:53:10;;;;;;;7.70;2.20;;;;;;;28.48;38.80;100998.64;1631249;85;21259;-50
2021/05/26 10:56:43;;;;;;;5.50;1.80;;;;;;;28.42;37.90;100993.50;1656594;86;21398;-50
2021/05/26 10:59:49;;;;;;;5.22;1.95;;;;;;;28.35;38.75;100995.73;1656719;86;21403;-51
2021/05/26 11:03:14;;;;;;;5.42;2.20;;;;;;;28.52;40.08;100992.71;1625501;83;21363;-52
2021/05/26 11:06:30;;;;;;;6.80;2.30;;;;;;;28.80;39.27;100989.35;1686827;84;21863;-52
2021/05/26 11:09:55;;;;;;;7.35;2.20;;;;;;;28.98;39.07;100987.39;1683476;85;21273;-52
2021/05/26 11:13:07;;;;;;;8.25;2.17;;;;;;;29.16;38.34;100985.45;1658831;85;21831;-52
2021/05/26 11:16:13;;;;;;;2.87;1.90;;;;;;;29.37;37.86;100981.45;1679249;85;21525;-52
2021/05/26 11:19:31;;;;;;;3.70;2.10;;;;;;;29.40;36.55;100975.82;1672339;83;21288;-52
2021/05/26 11:22:36;;;;;;;5.47;2.20;;;;;;;29.46;36.35;100976.94;1656828;84;21391;-51
2021/05/26 11:25:44;;;;;;;11.08;2.72;;;;;;;29.45;35.88;100968.77;1678901;84;21346;-50
2021/05/26 11:28:50;;;;;;;6.78;2.00;;;;;;;29.57;36.50;100979.16;1649772;86;21389;-51
2021/05/26 11:31:56;;;;;;;4.80;2.12;;;;;;;29.50;35.90;100975.22;1615783;86;21248;-53
2021/05/26 11:35:03;;;;;;;5.15;2.08;;;;;;;29.46;36.50;100968.47;1575125;90;21264;-53
2021/05/26 11:38:08;;;;;;;3.58;2.08;;;;;;;29.46;35.32;100962.83;1613489;88;21814;-53
2021/05/26 11:41:26;;;;;;;5.60;2.20;;;;;;;29.44;35.75;100958.03;1611911;87;21616;-52
2021/05/26 11:44:36;;;;;;;4.87;2.10;;;;;;;29.38;35.40;100957.77;1627279;87;21236;-53
2021/05/26 11:47:46;;;;;;;1.95;1.82;;;;;;;29.27;36.13;100955.25;1640884;85;21211;-52
2021/05/26 11:50:52;;;;;;;2.20;1.80;;;;;;;29.14;35.84;100956.68;1639490;85;21752;-52
2021/05/26 11:54:04;;;;;;;6.25;2.62;;;;;;;29.20;36.04;100955.53;1627766;86;21263;-50
2021/05/26 11:57:11;;;;;;;4.53;2.83;;;;;;;29.24;35.99;100951.00;1629459;87;21324;-52
2021/05/26 12:00:38;;;;;;;6.95;2.95;;;;;;;29.43;36.18;100949.27;1671509;84;21593;-54
2021/05/26 12:03:42;;;;;;;11.03;3.95;;;;;;;29.56;35.73;100945.02;1679626;85;21204;-50
2021/05/26 12:06:47;;;;;;;9.63;3.60;;;;;;;29.45;35.88;100946.19;1680761;85;22172;-51
2021/05/26 12:09:54;;;;;;;20.57;5.10;;;;;;;29.20;36.62;100944.25;1641685;87;21260;-50
2021/05/26 12:13:08;;;;;;;12.82;3.55;;;;;;;29.15;36.88;100931.56;1624540;86;21225;-51
2021/05/26 12:16:16;;;;;;;14.87;6.90;;;;;;;29.12;37.19;100937.22;1643227;86;21555;-53
2021/05/26 12:19:24;;;;;;;6.78;3.15;;;;;;;29.20;38.30;100928.73;1621393;87;21323;-50
2021/05/26 12:22:30;;;;;;;5.50;2.10;;;;;;;29.08;37.29;100929.62;1666124;83;21385;-52
2021/05/26 12:25:52;;;;;;;4.72;2.00;;;;;;;29.08;36.89;100928.21;1655160;86;21405;-52
2021/05/26 12:29:02;;;;;;;2.42;2.10;;;;;;;29.12;36.44;100930.17;1655013;86;21736;-53
2021/05/26 12:32:08;;;;;;;11.90;4.17;;;;;;;29.23;36.38;100924.79;1678967;83;21244;-53
2021/05/26 12:35:31;;;;;;;14.80;3.95;;;;;;;29.45;36.60;100930.08;1679575;83;21219;-55
2021/05/26 12:38:46;;;;;;;6.17;3.08;;;;;;;29.64;35.90;100921.30;1677651;85;21774;-53
2021/05/26 12:41:57;;;;;;;8.05;3.30;;;;;;;29.76;35.71;100918.15;1685489;85;21198;-52
2021/05/26 12:45:30;;;;;;;5.40;2.15;;;;;;;29.68;36.51;100908.31;1685971;85;21272;-51
2021/05/26 12:48:41;;;;;;;5.42;2.25;;;;;;;29.75;37.12;100908.83;1687028;85;21572;-51
2021/05/26 12:51:51;;;;;;;4.15;1.90;;;;;;;29.92;37.60;100907.06;1686814;85;21250;-53
2021/05/26 12:54:57;;;;;;;11.08;3.75;;;;;;;30.05;36.28;100904.42;1684785;85;21800;-52
2021/05/26 12:58:17;;;;;;;5.45;2.70;;;;;;;30.17;37.29;100893.63;1667400;85;21341;-52
2021/05/26 13:01:24;;;;;;;4.67;2.70;;;;;;;30.31;36.33;100899.49;1656541;86;21228;-51
2021/05/26 13:04:31;;;;;;;6.05;2.50;;;;;;;30.34;35.00;100895.52;1657618;86;21228;-51
2021/05/26 13:07:48;;;;;;;5.75;2.25;;;;;;;30.40;35.63;100894.34;1657950;86;21227;-52
2021/05/26 13:11:07;;;;;;;3.02;2.25;;;;;;;30.40;34.44;100894.34;1658200;86;21299;-52
2021/05/26 13:14:15;;;;;;;3.98;2.17;;;;;;;30.51;35.92;100893.67;1658376;86;21299;-52
2021/05/26 13:17:27;;;;;;;5.20;2.40;;;;;;;30.57;33.97;100892.52;1658475;86;21240;-51
2021/05/26 13:20:42;;;;;;;4.35;2.20;;;;;;;30.55;33.69;100885.75;1658430;86;21251;-52
2021/05/26 13:23:51;;;;;;;6.70;2.10;;;;;;;30.49;33.64;100883.26;1661440;85;21328;-52
2021/05/26 13:26:56;;;;;;;4.58;2.10;;;;;;;30.56;33.73;100878.94;1658908;85;21386;-52
2021/05/26 13:30:02;;;;;;;4.08;2.17;;;;;;;30.54;32.95;100888.28;1682227;84;21370;-53
2021/05/26 13:33:08;;;;;;;3.70;2.22;;;;;;;30.39;33.10;100884.18;1702280;84;21491;-51
2021/05/26 13:36:13;;;;;;;3.30;2.17;;;;;;;30.06;32.65;100875.06;1700646;84;21419;-51
2021/05/26 13:39:24;;;;;;;3.58;2.40;;;;;;;29.97;32.97;100871.14;1659127;85;21228;-53
2021/05/26 13:42:32;;;;;;;6.58;2.42;;;;;;;29.89;33.81;100864.70;1675069;84;21260;-52
2021/05/26 13:45:38;;;;;;;4.25;2.20;;;;;;;29.60;34.45;100871.33;1680283;84;21223;-51
2021/05/26 13:48:44;;;;;;;4.90;2.15;;;;;;;29.46;34.42;100862.66;1676789;85;21212;-53
2021/05/26 13:51:52;;;;;;;12.28;2.87;;;;;;;29.33;35.13;100863.81;1678677;85;21272;-52
2021/05/26 13:54:59;;;;;;;4.33;2.55;;;;;;;29.18;35.21;100861.89;1677582;83;21236;-50
2021/05/26 13:58:05;;;;;;;5.35;2.05;;;;;;;29.15;35.55;100851.19;1679006;85;21203;-52
2021/05/26 14:01:11;;;;;;;4.78;2.40;;;;;;;29.19;33.66;100853.14;1651980;85;21241;-51
2021/05/26 14:04:17;;;;;;;3.60;2.37;;;;;;;29.35;33.23;100855.92;1672034;83;21758;-53
2021/05/26 14:07:22;;;;;;;4.15;2.17;;;;;;;29.45;33.50;100849.66;1678769;85;21271;-52
2021/05/26 14:10:29;;;;;;;5.53;2.45;;;;;;;29.45;32.24;100853.89;1676140;83;21244;-53
2021/05/26 14:13:34;;;;;;;5.08;2.70;;;;;;;29.19;32.84;100848.08;1677102;85;21219;-52
2021/05/26 14:16:40;;;;;;;4.87;3.15;;;;;;;28.93;33.46;100852.05;1678372;85;21220;-54
2021/05/26 14:19:45;;;;;;;5.95;3.02;;;;;;;28.66;33.67;100848.71;1652861;85;21305;-52
2021/05/26 14:22:51;;;;;;;4.40;2.83;;;;;;;28.51;34.52;100843.93;1659119;85;21726;-52
2021/05/26 14:25:57;;;;;;;3.90;2.80;;;;;;;28.67;34.06;100835.75;1638815;84;21664;-53
2021/05/26 14:29:02;;;;;;;4.67;2.60;;;;;;;28.88;33.71;100840.78;1645169;87;21769;-53